Time;durP1;ratioP1;P1;durP2;ratioP2;P2;SDS_P1;SDS_P2;PMS_P1;PMS_P2;Temp;Humidity;BMP_temperature;BMP_pressure;BME280_temperature;BME280_humidity;BME280_pressure;Samples;Min_cycle;Max_cycle;Signal;HPM_P1;HPM_P2
2020/12/17 00:01:58;;;;;;;;;;;8.50;79.80;;;;;;4951884;28;117508;-86
2020/12/17 00:04:24;;;;;;;;;;;8.50;79.70;;;;;;4968778;28;117481;-86
2020/12/17 00:06:53;;;;;;;;;;;8.50;80.40;;;;;;4967739;28;121469;-86
2020/12/17 00:09:18;;;;;;;;;;;8.50;79.80;;;;;;4950620;28;119607;-86
2020/12/17 00:11:44;;;;;;;;;;;8.50;79.80;;;;;;4968958;28;117589;-86
2020/12/17 00:14:09;;;;;;;;;;;8.50;79.70;;;;;;4952535;28;117590;-86
2020/12/17 00:16:35;;;;;;;;;;;8.50;79.80;;;;;;4968204;28;117625;-86
2020/12/17 00:19:00;;;;;;;;;;;8.50;79.80;;;;;;4951466;28;120088;-86
2020/12/17 00:21:26;;;;;;;;;;;8.50;79.80;;;;;;4952489;28;117538;-86
2020/12/17 00:23:51;;;;;;;;;;;8.50;79.70;;;;;;4952421;28;117871;-86
2020/12/17 00:26:17;;;;;;;;;;;8.50;79.70;;;;;;4951883;28;121332;-86
2020/12/17 00:28:43;;;;;;;;;;;8.50;79.80;;;;;;4952357;28;119630;-86
2020/12/17 00:31:08;;;;;;;;;;;8.50;79.70;;;;;;4952683;28;117441;-86
2020/12/17 00:33:33;;;;;;;;;;;8.50;79.70;;;;;;4952982;28;117596;-86
2020/12/17 00:35:59;;;;;;;;;;;8.50;79.70;;;;;;4967509;28;117714;-86
2020/12/17 00:38:24;;;;;;;;;;;8.50;79.70;;;;;;4951209;28;119526;-86
2020/12/17 00:40:50;;;;;;;;;;;8.50;79.70;;;;;;4968794;28;117449;-86
2020/12/17 00:43:15;;;;;;;;;;;8.50;79.70;;;;;;4952181;28;117221;-86
2020/12/17 00:45:41;;;;;;;;;;;8.50;79.80;;;;;;4950922;28;120867;-86
2020/12/17 00:48:06;;;;;;;;;;;8.50;79.70;;;;;;4950151;28;120064;-86
2020/12/17 00:50:32;;;;;;;;;;;8.50;80.30;;;;;;4951374;28;117330;-86
2020/12/17 00:52:57;;;;;;;;;;;8.50;79.70;;;;;;4951691;28;118196;-86
2020/12/17 00:55:23;;;;;;;;;;;8.50;79.70;;;;;;4966671;28;118694;-86
2020/12/17 00:57:48;;;;;;;;;;;8.50;79.70;;;;;;4950062;28;120367;-86
2020/12/17 01:00:14;;;;;;;;;;;8.50;79.70;;;;;;4950211;28;118702;-86
2020/12/17 01:02:39;;;;;;;;;;;8.50;80.30;;;;;;4951045;28;117864;-86
2020/12/17 01:05:05;;;;;;;;;;;8.50;79.70;;;;;;4950335;28;121229;-86
2020/12/17 01:07:30;;;;;;;;;;;8.50;79.70;;;;;;4950106;28;119555;-86
2020/12/17 01:09:56;;;;;;;;;;;8.50;79.70;;;;;;4967562;28;117908;-86
2020/12/17 01:12:21;;;;;;;;;;;8.50;79.70;;;;;;4950945;28;117499;-86
2020/12/17 01:14:47;;;;;;;;;;;8.50;79.70;;;;;;4950150;28;119825;-86
2020/12/17 01:17:13;;;;;;;;;;;8.50;79.70;;;;;;4966609;28;117652;-86
2020/12/17 01:19:38;;;;;;;;;;;8.50;79.70;;;;;;4967486;28;117500;-86
2020/12/17 01:22:04;;;;;;;;;;;8.50;79.70;;;;;;4970896;28;117578;-86
2020/12/17 01:24:30;;;;;;;;;;;8.50;79.70;;;;;;4970421;28;117732;-86
2020/12/17 01:26:55;;;;;;;;;;;8.50;79.70;;;;;;4970384;28;117907;-86
2020/12/17 01:29:21;;;;;;;;;;;8.50;79.70;;;;;;4955004;28;117423;-86
2020/12/17 01:31:46;;;;;;;;;;;8.50;79.70;;;;;;4971652;28;117760;-86
2020/12/17 01:34:12;;;;;;;;;;;8.50;79.70;;;;;;4953972;28;120493;-86
2020/12/17 01:36:37;;;;;;;;;;;8.50;79.70;;;;;;4970069;28;116908;-86
2020/12/17 01:39:03;;;;;;;;;;;8.50;79.70;;;;;;4955227;28;117581;-86
2020/12/17 01:41:29;;;;;;;;;;;8.50;79.70;;;;;;4955673;28;117237;-86
2020/12/17 01:43:58;;;;;;;;;;;8.50;79.60;;;;;;4970859;28;117542;-86
2020/12/17 01:46:23;;;;;;;;;;;8.50;79.60;;;;;;4970193;28;119583;-86
2020/12/17 01:48:49;;;;;;;;;;;8.50;79.60;;;;;;4971726;28;117954;-86
2020/12/17 01:51:14;;;;;;;;;;;8.50;79.60;;;;;;4971637;28;117828;-86
2020/12/17 01:53:40;;;;;;;;;;;8.40;79.60;;;;;;4953743;28;120436;-86
2020/12/17 01:56:09;;;;;;;;;;;8.50;79.60;;;;;;4969556;28;119863;-86
2020/12/17 01:58:38;;;;;;;;;;;8.40;79.50;;;;;;4970374;28;117344;-86
2020/12/17 02:01:04;;;;;;;;;;;8.40;79.60;;;;;;4970177;28;117666;-86
2020/12/17 02:03:29;;;;;;;;;;;8.40;79.50;;;;;;4969421;28;118782;-86
2020/12/17 02:05:56;;;;;;;;;;;8.50;79.60;;;;;;4952784;28;120573;-86
2020/12/17 02:08:22;;;;;;;;;;;8.40;79.50;;;;;;4970258;28;117325;-86
2020/12/17 02:10:47;;;;;;;;;;;8.40;79.50;;;;;;4954009;28;117286;-86
2020/12/17 02:13:13;;;;;;;;;;;8.40;79.50;;;;;;4952736;28;119901;-86
2020/12/17 02:15:38;;;;;;;;;;;8.40;79.50;;;;;;4952446;28;119096;-86
2020/12/17 02:18:04;;;;;;;;;;;8.40;79.50;;;;;;4953343;28;117234;-86
2020/12/17 02:20:30;;;;;;;;;;;8.40;79.40;;;;;;4969959;28;117389;-86
2020/12/17 02:22:55;;;;;;;;;;;8.40;79.40;;;;;;4952087;28;121234;-86
2020/12/17 02:25:21;;;;;;;;;;;8.40;79.40;;;;;;4951681;28;119379;-86
2020/12/17 02:27:47;;;;;;;;;;;8.40;79.40;;;;;;4953105;28;117502;-86
2020/12/17 02:30:13;;;;;;;;;;;8.40;79.40;;;;;;4953653;28;117856;-86
2020/12/17 02:32:38;;;;;;;;;;;8.40;79.30;;;;;;4968127;28;117595;-86
2020/12/17 02:35:04;;;;;;;;;;;8.40;79.40;;;;;;4952172;28;119275;-86
2020/12/17 02:37:30;;;;;;;;;;;8.40;79.40;;;;;;4953507;28;117464;-86
2020/12/17 02:39:55;;;;;;;;;;;8.40;79.30;;;;;;4953868;28;117770;-86
2020/12/17 02:42:21;;;;;;;;;;;8.40;79.40;;;;;;4952639;28;122191;-86
2020/12/17 02:44:46;;;;;;;;;;;8.40;79.30;;;;;;4952651;28;119652;-86
2020/12/17 02:47:12;;;;;;;;;;;8.40;79.30;;;;;;4953283;28;117464;-86
2020/12/17 02:49:37;;;;;;;;;;;8.40;79.30;;;;;;4953279;28;118263;-86
2020/12/17 02:52:03;;;;;;;;;;;8.40;79.30;;;;;;4952948;28;119790;-87
2020/12/17 02:54:28;;;;;;;;;;;8.40;79.30;;;;;;4952922;28;119573;-87
2020/12/17 02:56:54;;;;;;;;;;;8.40;79.30;;;;;;4970975;28;117214;-87
2020/12/17 02:59:19;;;;;;;;;;;8.40;79.20;;;;;;4971231;28;117825;-87
2020/12/17 03:01:45;;;;;;;;;;;8.40;79.20;;;;;;4952883;28;119685;-87
2020/12/17 03:04:10;;;;;;;;;;;8.40;79.20;;;;;;4952886;28;122490;-87
2020/12/17 03:06:36;;;;;;;;;;;8.40;79.30;;;;;;4970317;28;117549;-88
2020/12/17 03:09:02;;;;;;;;;;;8.40;79.20;;;;;;4953747;28;117885;-88
2020/12/17 03:11:27;;;;;;;;;;;8.40;79.20;;;;;;4968251;28;121377;-88
2020/12/17 03:13:53;;;;;;;;;;;8.40;79.20;;;;;;4951757;28;119303;-87
2020/12/17 03:16:19;;;;;;;;;;;8.40;79.20;;;;;;4968851;28;117687;-87
2020/12/17 03:18:44;;;;;;;;;;;8.40;79.20;;;;;;4953237;28;117629;-87
2020/12/17 03:21:10;;;;;;;;;;;8.40;79.10;;;;;;4951626;28;121343;-87
2020/12/17 03:23:35;;;;;;;;;;;8.40;79.10;;;;;;4951554;28;122859;-87
2020/12/17 03:26:01;;;;;;;;;;;8.40;79.10;;;;;;4952333;28;117468;-87
2020/12/17 03:28:26;;;;;;;;;;;8.40;79.20;;;;;;4952603;28;117906;-87
2020/12/17 03:30:52;;;;;;;;;;;8.40;79.10;;;;;;4951492;28;121582;-87
2020/12/17 03:33:17;;;;;;;;;;;8.40;79.70;;;;;;4951213;28;119637;-87
2020/12/17 03:35:43;;;;;;;;;;;8.40;79.20;;;;;;4951916;28;117602;-88
2020/12/17 03:38:08;;;;;;;;;;;8.40;79.10;;;;;;4951847;28;117859;-87
2020/12/17 03:40:34;;;;;;;;;;;8.40;79.10;;;;;;4951221;28;121282;-87
2020/12/17 03:42:59;;;;;;;;;;;8.40;79.10;;;;;;4967529;28;117972;-87
2020/12/17 03:45:25;;;;;;;;;;;8.40;79.10;;;;;;4952043;28;117317;-87
2020/12/17 03:47:50;;;;;;;;;;;8.40;79.10;;;;;;4952586;28;117943;-87
2020/12/17 03:50:15;;;;;;;;;;;8.40;79.00;;;;;;4967891;28;117473;-87
2020/12/17 03:52:41;;;;;;;;;;;8.30;79.00;;;;;;4951455;28;120350;-87
2020/12/17 03:55:07;;;;;;;;;;;8.30;79.00;;;;;;4952304;28;117764;-87
2020/12/17 03:57:32;;;;;;;;;;;8.40;79.00;;;;;;4952641;28;117554;-87
2020/12/17 03:59:58;;;;;;;;;;;8.30;79.00;;;;;;4950894;28;120968;-87
2020/12/17 04:02:23;;;;;;;;;;;8.30;79.00;;;;;;4951090;28;119642;-87
2020/12/17 04:04:49;;;;;;;;;;;8.30;79.00;;;;;;4968962;28;117428;-87
2020/12/17 04:07:15;;;;;;;;;;;8.30;78.90;;;;;;4952812;28;117766;-87
2020/12/17 04:09:41;;;;;;;;;;;8.30;78.90;;;;;;4951987;28;121100;-87
2020/12/17 04:12:06;;;;;;;;;;;8.30;78.90;;;;;;4968893;28;119638;-87
2020/12/17 04:14:32;;;;;;;;;;;8.30;78.80;;;;;;4969776;28;117388;-87
2020/12/17 04:16:57;;;;;;;;;;;8.30;78.90;;;;;;4953239;28;117890;-87
2020/12/17 04:19:23;;;;;;;;;;;8.30;78.80;;;;;;4968438;28;117584;-87
2020/12/17 04:21:48;;;;;;;;;;;8.30;78.90;;;;;;4951501;28;120435;-87
2020/12/17 04:24:14;;;;;;;;;;;8.30;78.90;;;;;;4952272;28;117614;-87
2020/12/17 04:26:39;;;;;;;;;;;8.30;78.80;;;;;;4968361;28;117895;-87
2020/12/17 04:29:05;;;;;;;;;;;8.30;78.90;;;;;;4967605;28;117377;-87
2020/12/17 04:31:31;;;;;;;;;;;8.30;78.80;;;;;;4968042;28;117958;-87
2020/12/17 04:33:56;;;;;;;;;;;8.30;78.80;;;;;;4952078;28;117613;-87
2020/12/17 04:36:22;;;;;;;;;;;8.30;78.80;;;;;;4951785;28;117824;-87
2020/12/17 04:38:47;;;;;;;;;;;8.30;78.80;;;;;;4967016;28;120796;-87
2020/12/17 04:41:13;;;;;;;;;;;8.30;78.80;;;;;;4967298;28;117492;-87
2020/12/17 04:43:39;;;;;;;;;;;8.30;78.80;;;;;;4967923;28;117527;-87
2020/12/17 04:46:04;;;;;;;;;;;8.30;78.80;;;;;;4968022;28;117893;-87
2020/12/17 04:48:31;;;;;;;;;;;8.30;78.70;;;;;;4966964;28;118666;-87
2020/12/17 04:50:56;;;;;;;;;;;8.30;78.70;;;;;;4966375;28;117381;-87
2020/12/17 04:53:21;;;;;;;;;;;8.30;78.70;;;;;;4951014;28;116851;-88
2020/12/17 04:55:47;;;;;;;;;;;8.30;78.70;;;;;;4952369;28;117969;-88
2020/12/17 04:58:13;;;;;;;;;;;8.30;78.70;;;;;;4953805;28;120328;-88
2020/12/17 05:00:39;;;;;;;;;;;8.30;78.70;;;;;;4953198;28;120328;-88
2020/12/17 05:03:04;;;;;;;;;;;8.30;78.70;;;;;;4970241;28;117668;-87
2020/12/17 05:05:30;;;;;;;;;;;8.30;78.70;;;;;;4954750;28;117447;-87
2020/12/17 05:07:55;;;;;;;;;;;8.30;78.70;;;;;;4953903;28;120364;-87
2020/12/17 05:10:21;;;;;;;;;;;8.30;78.70;;;;;;4954011;28;119240;-87
2020/12/17 05:12:46;;;;;;;;;;;8.30;78.70;;;;;;4954895;28;117366;-87
2020/12/17 05:15:12;;;;;;;;;;;8.30;78.70;;;;;;4971074;28;117797;-87
2020/12/17 05:17:37;;;;;;;;;;;8.30;78.60;;;;;;4970644;28;118288;-87
2020/12/17 05:20:05;;;;;;;;;;;8.30;78.70;;;;;;4953717;28;119765;-87
2020/12/17 05:22:30;;;;;;;;;;;8.30;78.60;;;;;;4971377;28;117744;-87
2020/12/17 05:24:56;;;;;;;;;;;8.30;78.70;;;;;;4972413;28;117747;-87
2020/12/17 05:27:21;;;;;;;;;;;8.30;78.50;;;;;;4971073;28;118514;-87
2020/12/17 05:29:47;;;;;;;;;;;8.30;78.50;;;;;;4954862;28;121437;-87
2020/12/17 05:32:18;;;;;;;;;;;8.30;78.50;;;;;;4955310;28;117514;-87
2020/12/17 05:34:43;;;;;;;;;;;8.20;78.50;;;;;;4971902;28;117762;-87
2020/12/17 05:37:09;;;;;;;;;;;8.30;78.50;;;;;;4953803;28;120278;-87
2020/12/17 05:39:34;;;;;;;;;;;8.30;78.50;;;;;;4969802;28;117983;-87
2020/12/17 05:42:00;;;;;;;;;;;8.30;78.60;;;;;;4954034;28;117739;-87
2020/12/17 05:44:26;;;;;;;;;;;8.20;78.40;;;;;;4971128;28;117804;-87
2020/12/17 05:46:52;;;;;;;;;;;8.20;78.40;;;;;;4969876;28;121482;-87
2020/12/17 05:49:19;;;;;;;;;;;8.30;78.50;;;;;;4969955;28;117560;-87
2020/12/17 05:51:44;;;;;;;;;;;8.30;78.90;;;;;;4970342;28;117588;-87
2020/12/17 05:54:20;;;;;;;;;;;8.20;78.30;;;;;;4971054;28;117773;-87
2020/12/17 05:56:46;;;;;;;;;;;8.30;78.40;;;;;;4969406;28;117651;-87
2020/12/17 05:59:12;;;;;;;;;;;8.30;78.40;;;;;;4968781;28;117515;-87
2020/12/17 06:01:39;;;;;;;;;;;8.30;78.40;;;;;;4953592;28;117483;-87
2020/12/17 06:04:14;;;;;;;;;;;8.30;78.40;;;;;;4953320;28;117876;-87
2020/12/17 06:06:42;;;;;;;;;;;8.20;78.40;;;;;;4951602;28;121305;-87
2020/12/17 06:09:08;;;;;;;;;;;8.20;78.50;;;;;;4968364;28;120307;-87
2020/12/17 06:11:33;;;;;;;;;;;8.20;78.30;;;;;;4953191;28;117286;-87
2020/12/17 06:13:59;;;;;;;;;;;8.20;78.30;;;;;;4953684;28;117874;-87
2020/12/17 06:16:25;;;;;;;;;;;8.20;78.30;;;;;;4952561;28;121314;-87
2020/12/17 06:18:50;;;;;;;;;;;8.20;78.30;;;;;;4952859;28;119784;-87
2020/12/17 06:21:16;;;;;;;;;;;8.20;78.30;;;;;;4988291;28;118121;-87
2020/12/17 06:23:41;;;;;;;;;;;8.20;78.30;;;;;;4970812;28;117405;-87
2020/12/17 06:26:08;;;;;;;;;;;8.20;78.30;;;;;;4952537;28;120016;-87
2020/12/17 06:28:37;;;;;;;;;;;8.20;78.30;;;;;;4968568;28;119648;-87
2020/12/17 06:31:03;;;;;;;;;;;8.20;78.30;;;;;;4969995;28;117585;-87
2020/12/17 06:33:28;;;;;;;;;;;8.20;78.30;;;;;;4970944;28;117275;-87
2020/12/17 06:35:55;;;;;;;;;;;8.20;78.30;;;;;;4952568;28;119978;-87
2020/12/17 06:38:21;;;;;;;;;;;8.20;78.20;;;;;;4969677;28;117531;-87
2020/12/17 06:40:47;;;;;;;;;;;8.20;78.30;;;;;;4970873;28;117455;-87
2020/12/17 06:43:27;;;;;;;;;;;8.20;78.30;;;;;;4955552;28;117929;-87
2020/12/17 06:45:53;;;;;;;;;;;8.20;78.20;;;;;;4970176;28;117263;-87
2020/12/17 06:48:34;;;;;;;;;;;8.20;78.20;;;;;;4969637;28;117920;-87
2020/12/17 06:51:23;;;;;;;;;;;8.30;78.40;;;;;;4969914;28;117477;-87
2020/12/17 06:53:49;;;;;;;;;;;8.20;78.30;;;;;;4979132;28;117666;-87
2020/12/17 06:56:15;;;;;;;;;;;8.20;78.20;;;;;;4969125;28;117682;-87
2020/12/17 06:58:40;;;;;;;;;;;8.20;78.30;;;;;;4968259;28;120077;-87
2020/12/17 07:01:08;;;;;;;;;;;8.20;78.20;;;;;;4953254;28;117490;-86
2020/12/17 07:03:46;;;;;;;;;;;8.20;78.20;;;;;;4969246;28;117729;-86
2020/12/17 07:06:12;;;;;;;;;;;8.20;78.20;;;;;;4968149;28;121475;-86
2020/12/17 07:08:38;;;;;;;;;;;8.20;78.20;;;;;;4967782;28;119324;-86
2020/12/17 07:11:03;;;;;;;;;;;8.20;78.20;;;;;;4952806;28;117499;-86
2020/12/17 07:13:39;;;;;;;;;;;8.20;78.40;;;;;;4952579;28;117504;-86
2020/12/17 07:16:04;;;;;;;;;;;8.20;78.30;;;;;;4968326;28;117262;-86
2020/12/17 07:18:30;;;;;;;;;;;8.20;78.20;;;;;;4950543;28;119624;-86
2020/12/17 07:21:03;;;;;;;;;;;8.20;78.20;;;;;;4968891;28;117436;-86
2020/12/17 07:23:35;;;;;;;;;;;8.20;78.30;;;;;;4969016;28;117796;-86
2020/12/17 07:26:04;;;;;;;;;;;8.20;78.20;;;;;;4967396;28;119935;-86
2020/12/17 07:28:29;;;;;;;;;;;8.20;78.20;;;;;;4951333;28;120795;-86
2020/12/17 07:30:55;;;;;;;;;;;8.20;78.20;;;;;;4952178;28;117314;-86
2020/12/17 07:33:36;;;;;;;;;;;8.20;78.20;;;;;;4952868;28;117646;-86
2020/12/17 07:36:02;;;;;;;;;;;8.20;78.20;;;;;;4967767;28;120736;-86
2020/12/17 07:38:27;;;;;;;;;;;8.20;78.20;;;;;;4968116;28;117956;-86
2020/12/17 07:40:53;;;;;;;;;;;8.20;78.20;;;;;;4952574;28;117323;-88
2020/12/17 07:43:20;;;;;;;;;;;8.20;78.80;;;;;;4968965;28;117554;-86
2020/12/17 07:45:52;;;;;;;;;;;8.20;78.10;;;;;;4951654;28;121977;-86
2020/12/17 07:48:36;;;;;;;;;;;8.20;78.20;;;;;;4968171;28;119871;-86
2020/12/17 07:51:03;;;;;;;;;;;8.20;78.20;;;;;;4987294;28;117660;-86
2020/12/17 07:53:28;;;;;;;;;;;8.20;78.20;;;;;;4969587;28;117437;-86
2020/12/17 07:55:54;;;;;;;;;;;8.20;78.30;;;;;;4968765;28;118458;-86
2020/12/17 07:58:20;;;;;;;;;;;8.20;78.20;;;;;;4952701;28;119417;-86
2020/12/17 08:00:45;;;;;;;;;;;8.20;78.20;;;;;;4970106;28;117401;-86
2020/12/17 08:03:11;;;;;;;;;;;8.20;78.20;;;;;;4969932;28;117842;-86
2020/12/17 08:05:36;;;;;;;;;;;8.20;78.20;;;;;;4951998;28;120200;-86
2020/12/17 08:08:02;;;;;;;;;;;8.20;78.30;;;;;;4967230;28;119852;-86
2020/12/17 08:10:28;;;;;;;;;;;8.10;78.10;;;;;;4952258;28;117533;-86
2020/12/17 08:12:53;;;;;;;;;;;8.20;78.20;;;;;;4952433;28;117846;-86
2020/12/17 08:15:20;;;;;;;;;;;8.20;78.20;;;;;;4967616;28;117970;-86
2020/12/17 08:17:47;;;;;;;;;;;8.20;78.20;;;;;;4951337;28;120488;-86
2020/12/17 08:20:16;;;;;;;;;;;8.20;78.20;;;;;;4952074;28;117479;-86
2020/12/17 08:22:42;;;;;;;;;;;8.20;78.20;;;;;;4952236;28;117918;-86
2020/12/17 08:25:07;;;;;;;;;;;8.20;78.20;;;;;;4967241;28;120334;-86
2020/12/17 08:27:33;;;;;;;;;;;8.10;78.20;;;;;;4950703;28;119206;-86
2020/12/17 08:30:00;;;;;;;;;;;8.10;78.10;;;;;;4966831;28;117516;-86
2020/12/17 08:32:26;;;;;;;;;;;8.10;78.20;;;;;;4951373;28;117549;-86
2020/12/17 08:34:54;;;;;;;;;;;8.20;78.20;;;;;;4966837;28;121107;-86
2020/12/17 08:37:20;;;;;;;;;;;8.10;78.10;;;;;;4950041;28;120673;-86
2020/12/17 08:39:46;;;;;;;;;;;8.20;78.20;;;;;;4951150;28;117551;-86
2020/12/17 08:42:11;;;;;;;;;;;8.20;78.20;;;;;;4951542;28;118182;-86
2020/12/17 08:44:37;;;;;;;;;;;8.20;78.20;;;;;;4950637;28;120381;-86
2020/12/17 08:47:06;;;;;;;;;;;8.10;78.20;;;;;;4967072;28;117475;-86
2020/12/17 08:49:32;;;;;;;;;;;8.10;78.30;;;;;;4968064;28;117627;-86
2020/12/17 08:51:58;;;;;;;;;;;8.20;78.30;;;;;;4952241;28;117416;-86
2020/12/17 08:54:23;;;;;;;;;;;8.20;78.30;;;;;;4950763;28;119889;-86
2020/12/17 08:56:59;;;;;;;;;;;8.10;78.30;;;;;;4966317;28;120750;-86
2020/12/17 08:59:24;;;;;;;;;;;8.10;78.30;;;;;;4967467;28;117598;-86
2020/12/17 09:01:50;;;;;;;;;;;8.20;78.30;;;;;;4969068;28;117825;-86
2020/12/17 09:04:15;;;;;;;;;;;8.20;78.40;;;;;;4967530;28;117544;-86
2020/12/17 09:06:41;;;;;;;;;;;8.10;78.30;;;;;;4950815;28;120649;-86
2020/12/17 09:09:25;;;;;;;;;;;8.20;78.40;;;;;;4952180;28;117400;-86
2020/12/17 09:11:51;;;;;;;;;;;8.10;78.30;;;;;;4970224;28;117517;-86
2020/12/17 09:14:19;;;;;;;;;;;8.10;78.30;;;;;;4951908;28;121120;-86
2020/12/17 09:16:46;;;;;;;;;;;8.20;78.40;;;;;;4951222;28;119567;-90
2020/12/17 09:19:12;;;;;;;;;;;8.20;78.40;;;;;;4968318;28;117443;-90
2020/12/17 09:21:38;;;;;;;;;;;8.20;78.50;;;;;;4951372;28;117353;-90
2020/12/17 09:24:03;;;;;;;;;;;8.20;78.60;;;;;;4966781;28;120199;-90
2020/12/17 09:26:29;;;;;;;;;;;8.10;78.50;;;;;;4950564;28;119505;-90
2020/12/17 09:28:59;;;;;;;;;;;8.10;78.50;;;;;;4951543;28;117484;-90
2020/12/17 09:31:25;;;;;;;;;;;8.10;78.50;;;;;;4967951;28;117563;-90
2020/12/17 09:34:00;;;;;;;;;;;8.10;78.50;;;;;;4966630;28;121526;-90
2020/12/17 09:36:26;;;;;;;;;;;8.10;78.50;;;;;;4966368;28;119852;-90
2020/12/17 09:38:57;;;;;;;;;;;8.10;78.50;;;;;;4950864;28;117649;-90
2020/12/17 09:41:23;;;;;;;;;;;8.20;78.50;;;;;;4967875;28;117673;-90
2020/12/17 09:43:48;;;;;;;;;;;8.10;78.50;;;;;;4952821;28;120680;-90
2020/12/17 09:46:14;;;;;;;;;;;8.10;78.50;;;;;;4952126;28;119502;-90
2020/12/17 09:48:39;;;;;;;;;;;8.10;78.50;;;;;;4953511;28;117447;-90
2020/12/17 09:51:08;;;;;;;;;;;8.10;78.50;;;;;;4970759;28;117535;-90
2020/12/17 09:53:38;;;;;;;;;;;8.10;78.50;;;;;;4952828;28;119931;-90
2020/12/17 09:56:04;;;;;;;;;;;8.20;78.60;;;;;;4969020;28;119615;-90
2020/12/17 09:58:29;;;;;;;;;;;8.10;78.60;;;;;;4969588;28;117816;-90
2020/12/17 10:00:55;;;;;;;;;;;8.10;78.60;;;;;;4954481;28;117632;-90
2020/12/17 10:03:20;;;;;;;;;;;8.10;78.60;;;;;;4952954;28;120681;-90
2020/12/17 10:05:46;;;;;;;;;;;8.10;78.60;;;;;;4952880;28;120547;-90
2020/12/17 10:08:11;;;;;;;;;;;8.10;78.60;;;;;;4954093;28;117526;-90
2020/12/17 10:10:37;;;;;;;;;;;8.10;78.70;;;;;;4953609;28;117545;-90
2020/12/17 10:13:03;;;;;;;;;;;8.10;78.60;;;;;;4953552;28;121019;-90
2020/12/17 10:15:28;;;;;;;;;;;8.10;78.60;;;;;;4969734;28;117674;-90
2020/12/17 10:17:54;;;;;;;;;;;8.10;78.70;;;;;;4954273;28;117551;-90
2020/12/17 10:20:20;;;;;;;;;;;8.10;78.70;;;;;;4971242;28;117321;-90
2020/12/17 10:22:45;;;;;;;;;;;8.10;78.70;;;;;;4969774;28;120654;-90
2020/12/17 10:25:11;;;;;;;;;;;8.10;78.70;;;;;;4953453;28;119676;-90
2020/12/17 10:27:36;;;;;;;;;;;8.10;78.80;;;;;;4955191;28;117329;-90
2020/12/17 10:30:02;;;;;;;;;;;8.10;78.90;;;;;;4955269;28;117403;-90
2020/12/17 10:32:27;;;;;;;;;;;8.10;78.80;;;;;;4970037;28;120199;-90
2020/12/17 10:34:53;;;;;;;;;;;8.10;78.90;;;;;;4968957;28;117821;-90
2020/12/17 10:37:18;;;;;;;;;;;8.10;78.90;;;;;;4953641;28;117877;-90
2020/12/17 10:39:44;;;;;;;;;;;8.10;78.90;;;;;;4953987;28;117487;-90
2020/12/17 10:42:10;;;;;;;;;;;8.10;78.90;;;;;;4952805;28;121674;-89
2020/12/17 10:44:36;;;;;;;;;;;8.10;78.90;;;;;;4969124;28;117496;-90
2020/12/17 10:47:06;;;;;;;;;;;8.10;79.50;;;;;;4969774;28;117580;-90
2020/12/17 10:49:34;;;;;;;;;;;8.10;78.90;;;;;;4953794;28;117852;-90
2020/12/17 10:52:00;;;;;;;;;;;8.10;78.90;;;;;;4952229;28;121799;-90
2020/12/17 10:54:25;;;;;;;;;;;8.10;78.90;;;;;;4951536;28;119426;-90
2020/12/17 10:56:51;;;;;;;;;;;8.10;78.90;;;;;;4952629;28;117488;-90
2020/12/17 10:59:16;;;;;;;;;;;8.10;78.90;;;;;;4952174;28;117865;-90
2020/12/17 11:01:42;;;;;;;;;;;8.10;78.90;;;;;;4952267;28;122267;-90
2020/12/17 11:04:08;;;;;;;;;;;8.10;78.90;;;;;;4958624;28;119744;-90
2020/12/17 11:06:33;;;;;;;;;;;8.10;78.90;;;;;;4970975;28;117349;-90
2020/12/17 11:08:59;;;;;;;;;;;8.10;78.90;;;;;;4952925;28;117926;-90
2020/12/17 11:11:24;;;;;;;;;;;8.10;78.90;;;;;;4951599;28;120620;-90
2020/12/17 11:13:53;;;;;;;;;;;8.10;78.90;;;;;;4952364;28;117298;-90
2020/12/17 11:16:19;;;;;;;;;;;8.10;78.90;;;;;;4953080;28;117698;-90
2020/12/17 11:18:44;;;;;;;;;;;8.10;78.90;;;;;;4953275;28;117551;-90
2020/12/17 11:21:10;;;;;;;;;;;8.10;78.90;;;;;;4951741;28;121261;-90
2020/12/17 11:23:35;;;;;;;;;;;8.10;78.90;;;;;;4984000;28;119586;-90
2020/12/17 11:26:02;;;;;;;;;;;8.10;78.90;;;;;;4972312;28;117789;-90
2020/12/17 11:28:27;;;;;;;;;;;8.10;78.90;;;;;;4975828;28;117408;-89
2020/12/17 11:30:53;;;;;;;;;;;8.10;78.90;;;;;;4953379;28;120019;-90
2020/12/17 11:33:18;;;;;;;;;;;8.10;78.90;;;;;;4952044;28;120305;-90
2020/12/17 11:35:44;;;;;;;;;;;8.10;78.90;;;;;;4952829;28;117478;-90
2020/12/17 11:38:09;;;;;;;;;;;8.10;78.90;;;;;;4953428;28;117396;-90
2020/12/17 11:40:35;;;;;;;;;;;8.10;78.90;;;;;;4953200;28;120687;-90
2020/12/17 11:43:00;;;;;;;;;;;8.10;79.00;;;;;;4953650;28;119349;-90
2020/12/17 11:45:26;;;;;;;;;;;8.10;79.00;;;;;;4953592;28;117358;-90
2020/12/17 11:47:52;;;;;;;;;;;8.10;79.00;;;;;;4953148;28;117769;-90
2020/12/17 11:50:17;;;;;;;;;;;8.10;79.00;;;;;;4968459;28;120098;-90
2020/12/17 11:52:43;;;;;;;;;;;8.10;79.00;;;;;;4952141;28;118908;-90
2020/12/17 11:55:09;;;;;;;;;;;8.10;79.00;;;;;;4952090;28;117411;-90
2020/12/17 11:57:34;;;;;;;;;;;8.10;79.00;;;;;;4952841;28;117835;-90
2020/12/17 12:00:00;;;;;;;;;;;8.10;79.00;;;;;;4950882;28;120185;-90
2020/12/17 12:02:25;;;;;;;;;;;8.10;79.00;;;;;;4967698;28;117424;-89
2020/12/17 12:04:51;;;;;;;;;;;8.10;79.00;;;;;;4951384;28;117476;-90
2020/12/17 12:07:16;;;;;;;;;;;8.10;79.10;;;;;;4951752;28;117896;-90
2020/12/17 12:09:42;;;;;;;;;;;8.10;79.10;;;;;;4950742;28;118543;-90
2020/12/17 12:12:07;;;;;;;;;;;8.10;79.10;;;;;;4950277;28;120245;-90
2020/12/17 12:14:33;;;;;;;;;;;8.10;79.10;;;;;;4968187;28;117659;-90
2020/12/17 12:16:59;;;;;;;;;;;8.10;79.10;;;;;;4951515;28;117477;-90
2020/12/17 12:19:24;;;;;;;;;;;8.10;79.10;;;;;;4950535;28;121179;-90
2020/12/17 12:21:50;;;;;;;;;;;8.10;79.10;;;;;;4950858;28;118908;-90
2020/12/17 12:24:16;;;;;;;;;;;8.10;79.10;;;;;;4967644;28;117406;-90
2020/12/17 12:26:41;;;;;;;;;;;8.10;79.10;;;;;;4951443;28;117872;-89
2020/12/17 12:29:07;;;;;;;;;;;8.10;79.10;;;;;;4950804;28;120372;-90
2020/12/17 12:31:32;;;;;;;;;;;8.10;79.10;;;;;;4967102;28;117955;-90
2020/12/17 12:33:58;;;;;;;;;;;8.10;79.10;;;;;;4968449;28;117573;-90
2020/12/17 12:36:23;;;;;;;;;;;8.10;79.20;;;;;;4951251;28;117889;-90
2020/12/17 12:38:49;;;;;;;;;;;8.10;79.20;;;;;;4950758;28;119851;-90
2020/12/17 12:41:17;;;;;;;;;;;8.10;79.20;;;;;;4967751;28;117879;-90
2020/12/17 12:43:42;;;;;;;;;;;8.10;79.20;;;;;;4968248;28;117765;-90
2020/12/17 12:46:08;;;;;;;;;;;8.10;79.20;;;;;;4952021;28;118214;-90
2020/12/17 12:48:34;;;;;;;;;;;8.10;79.20;;;;;;4967763;28;117262;-90
2020/12/17 12:51:02;;;;;;;;;;;8.10;79.20;;;;;;4967798;28;120573;-90
2020/12/17 12:53:27;;;;;;;;;;;8.10;79.30;;;;;;4952628;28;117447;-90
2020/12/17 12:55:53;;;;;;;;;;;8.10;79.20;;;;;;4969121;28;117461;-90
2020/12/17 12:58:18;;;;;;;;;;;8.10;79.20;;;;;;4951835;28;120070;-90
2020/12/17 13:00:44;;;;;;;;;;;8.10;79.20;;;;;;4950540;28;119598;-90
2020/12/17 13:03:09;;;;;;;;;;;8.10;79.20;;;;;;4951969;28;117836;-90
2020/12/17 13:05:35;;;;;;;;;;;8.10;79.20;;;;;;4952030;28;117568;-90
2020/12/17 13:08:01;;;;;;;;;;;8.10;79.30;;;;;;4967171;28;120383;-90
2020/12/17 13:10:26;;;;;;;;;;;8.10;79.30;;;;;;4950856;28;120084;-90
2020/12/17 13:12:52;;;;;;;;;;;8.10;79.40;;;;;;4951550;28;117509;-90
2020/12/17 13:15:17;;;;;;;;;;;8.10;79.40;;;;;;4951726;28;117987;-90
2020/12/17 13:17:43;;;;;;;;;;;8.10;79.40;;;;;;4953225;28;122134;-90
2020/12/17 13:20:08;;;;;;;;;;;8.10;79.40;;;;;;4953743;28;120615;-90
2020/12/17 13:22:34;;;;;;;;;;;8.10;79.50;;;;;;4954673;28;116840;-90
2020/12/17 13:25:00;;;;;;;;;;;8.10;79.50;;;;;;4954355;28;117384;-90
2020/12/17 13:27:26;;;;;;;;;;;8.10;79.50;;;;;;4953241;28;121248;-90
2020/12/17 13:29:52;;;;;;;;;;;8.10;79.60;;;;;;4953508;28;119464;-90
2020/12/17 13:32:18;;;;;;;;;;;8.10;79.60;;;;;;4953853;28;117762;-90
2020/12/17 13:34:43;;;;;;;;;;;8.10;79.60;;;;;;4970926;28;117818;-90
2020/12/17 13:37:09;;;;;;;;;;;8.10;79.70;;;;;;4952992;28;120114;-90
2020/12/17 13:39:34;;;;;;;;;;;8.10;79.80;;;;;;4953297;28;119847;-90
2020/12/17 13:42:00;;;;;;;;;;;8.10;79.70;;;;;;4954055;28;117625;-90
2020/12/17 13:44:25;;;;;;;;;;;8.10;79.70;;;;;;4954368;28;117907;-90
2020/12/17 13:46:54;;;;;;;;;;;8.10;79.80;;;;;;4953045;28;120535;-90
2020/12/17 13:49:20;;;;;;;;;;;8.10;79.70;;;;;;4968748;28;120723;-90
2020/12/17 13:51:46;;;;;;;;;;;8.10;79.60;;;;;;4953895;28;117294;-90
2020/12/17 13:54:11;;;;;;;;;;;8.10;79.60;;;;;;4954610;28;117867;-90
2020/12/17 13:56:41;;;;;;;;;;;8.10;79.60;;;;;;4969620;28;117494;-90
2020/12/17 13:59:06;;;;;;;;;;;8.10;79.60;;;;;;4953768;28;119098;-90
2020/12/17 14:01:32;;;;;;;;;;;8.10;79.60;;;;;;4970899;28;117596;-90
2020/12/17 14:03:57;;;;;;;;;;;8.10;79.70;;;;;;4954551;28;117929;-90
2020/12/17 14:06:23;;;;;;;;;;;8.10;79.60;;;;;;4970117;28;118535;-90
2020/12/17 14:08:49;;;;;;;;;;;8.10;79.70;;;;;;4953860;28;120619;-90
2020/12/17 14:11:15;;;;;;;;;;;8.10;79.70;;;;;;4954829;28;117557;-90